sensor_id;sensor_type;location;lat;lon;timestamp;P1;durP1;ratioP1;P2;durP2;ratioP2
17153;SDS011;8692;52.164;7.558;2023-05-10T00:00:07;1.33;;;1.23;;
17153;SDS011;8692;52.164;7.558;2023-05-10T00:02:41;2.80;;;2.50;;
17153;SDS011;8692;52.164;7.558;2023-05-10T00:05:09;2.33;;;2.23;;
17153;SDS011;8692;52.164;7.558;2023-05-10T00:07:37;4.43;;;2.30;;
17153;SDS011;8692;52.164;7.558;2023-05-10T00:10:06;2.90;;;2.70;;
17153;SDS011;8692;52.164;7.558;2023-05-10T00:12:37;2.10;;;2.00;;
17153;SDS011;8692;52.164;7.558;2023-05-10T00:15:08;2.87;;;2.67;;
17153;SDS011;8692;52.164;7.558;2023-05-10T00:17:39;2.80;;;2.60;;
17153;SDS011;8692;52.164;7.558;2023-05-10T00:20:11;2.10;;;2.00;;
17153;SDS011;8692;52.164;7.558;2023-05-10T00:22:39;2.87;;;2.67;;
17153;SDS011;8692;52.164;7.558;2023-05-10T00:25:10;2.80;;;2.60;;
17153;SDS011;8692;52.164;7.558;2023-05-10T00:27:38;2.30;;;2.20;;
17153;SDS011;8692;52.164;7.558;2023-05-10T00:30:07;1.80;;;1.70;;
17153;SDS011;8692;52.164;7.558;2023-05-10T00:32:38;2.60;;;2.40;;
17153;SDS011;8692;52.164;7.558;2023-05-10T00:35:10;2.10;;;1.90;;
17153;SDS011;8692;52.164;7.558;2023-05-10T00:37:41;2.93;;;2.73;;
17153;SDS011;8692;52.164;7.558;2023-05-10T00:40:09;3.53;;;3.23;;
17153;SDS011;8692;52.164;7.558;2023-05-10T00:42:39;2.83;;;2.63;;
17153;SDS011;8692;52.164;7.558;2023-05-10T00:45:09;3.27;;;3.00;;
17153;SDS011;8692;52.164;7.558;2023-05-10T00:47:38;2.40;;;2.20;;
17153;SDS011;8692;52.164;7.558;2023-05-10T00:50:07;2.70;;;2.50;;
17153;SDS011;8692;52.164;7.558;2023-05-10T00:52:37;2.17;;;2.07;;
17153;SDS011;8692;52.164;7.558;2023-05-10T00:55:06;2.40;;;2.20;;
17153;SDS011;8692;52.164;7.558;2023-05-10T00:57:38;2.30;;;2.10;;
17153;SDS011;8692;52.164;7.558;2023-05-10T01:00:07;2.30;;;2.10;;
17153;SDS011;8692;52.164;7.558;2023-05-10T01:02:36;2.50;;;2.30;;
17153;SDS011;8692;52.164;7.558;2023-05-10T01:05:07;1.80;;;1.70;;
17153;SDS011;8692;52.164;7.558;2023-05-10T01:07:36;3.30;;;2.00;;
17153;SDS011;8692;52.164;7.558;2023-05-10T01:10:05;1.73;;;1.63;;
17153;SDS011;8692;52.164;7.558;2023-05-10T01:12:37;1.80;;;1.70;;
17153;SDS011;8692;52.164;7.558;2023-05-10T01:15:07;1.53;;;1.43;;
17153;SDS011;8692;52.164;7.558;2023-05-10T01:17:38;2.67;;;1.90;;
17153;SDS011;8692;52.164;7.558;2023-05-10T01:20:10;1.80;;;1.70;;
17153;SDS011;8692;52.164;7.558;2023-05-10T01:25:54;2.47;;;2.27;;
17153;SDS011;8692;52.164;7.558;2023-05-10T01:28:43;3.53;;;2.53;;
17153;SDS011;8692;52.164;7.558;2023-05-10T01:31:38;2.30;;;2.10;;
17153;SDS011;8692;52.164;7.558;2023-05-10T01:34:33;2.37;;;2.17;;
17153;SDS011;8692;52.164;7.558;2023-05-10T01:37:06;2.30;;;2.10;;
17153;SDS011;8692;52.164;7.558;2023-05-10T01:39:40;1.80;;;1.70;;
17153;SDS011;8692;52.164;7.558;2023-05-10T01:42:14;2.40;;;2.20;;
17153;SDS011;8692;52.164;7.558;2023-05-10T01:44:46;2.17;;;1.97;;
17153;SDS011;8692;52.164;7.558;2023-05-10T01:47:24;1.87;;;1.77;;
17153;SDS011;8692;52.164;7.558;2023-05-10T01:50:01;1.90;;;1.80;;
17153;SDS011;8692;52.164;7.558;2023-05-10T01:52:33;2.13;;;2.03;;
17153;SDS011;8692;52.164;7.558;2023-05-10T01:55:09;1.80;;;1.70;;
17153;SDS011;8692;52.164;7.558;2023-05-10T01:57:40;3.10;;;1.63;;
17153;SDS011;8692;52.164;7.558;2023-05-10T02:00:11;2.07;;;1.70;;
17153;SDS011;8692;52.164;7.558;2023-05-10T02:02:44;2.20;;;2.00;;
17153;SDS011;8692;52.164;7.558;2023-05-10T02:05:15;1.80;;;1.70;;
17153;SDS011;8692;52.164;7.558;2023-05-10T02:07:44;1.63;;;1.53;;
17153;SDS011;8692;52.164;7.558;2023-05-10T02:10:13;3.57;;;1.90;;
17153;SDS011;8692;52.164;7.558;2023-05-10T02:12:44;3.53;;;1.90;;
17153;SDS011;8692;52.164;7.558;2023-05-10T02:15:23;2.47;;;2.00;;
17153;SDS011;8692;52.164;7.558;2023-05-10T02:17:54;2.73;;;2.10;;
17153;SDS011;8692;52.164;7.558;2023-05-10T02:20:27;2.00;;;1.90;;
17153;SDS011;8692;52.164;7.558;2023-05-10T02:22:58;2.07;;;1.93;;
17153;SDS011;8692;52.164;7.558;2023-05-10T02:25:28;2.30;;;2.10;;
17153;SDS011;8692;52.164;7.558;2023-05-10T02:28:01;2.70;;;2.50;;
17153;SDS011;8692;52.164;7.558;2023-05-10T02:30:32;2.80;;;2.60;;
17153;SDS011;8692;52.164;7.558;2023-05-10T02:33:02;2.60;;;2.40;;
17153;SDS011;8692;52.164;7.558;2023-05-10T02:35:33;3.20;;;3.00;;
17153;SDS011;8692;52.164;7.558;2023-05-10T02:38:02;4.13;;;3.73;;
17153;SDS011;8692;52.164;7.558;2023-05-10T02:40:31;3.83;;;3.53;;
17153;SDS011;8692;52.164;7.558;2023-05-10T02:43:01;3.60;;;3.30;;
17153;SDS011;8692;52.164;7.558;2023-05-10T02:45:32;3.80;;;3.40;;
17153;SDS011;8692;52.164;7.558;2023-05-10T02:48:08;3.20;;;3.00;;
17153;SDS011;8692;52.164;7.558;2023-05-10T02:50:38;3.87;;;3.50;;
17153;SDS011;8692;52.164;7.558;2023-05-10T02:53:15;4.13;;;3.83;;
17153;SDS011;8692;52.164;7.558;2023-05-10T02:55:46;3.70;;;3.40;;
17153;SDS011;8692;52.164;7.558;2023-05-10T02:58:18;4.07;;;3.77;;
17153;SDS011;8692;52.164;7.558;2023-05-10T03:00:49;3.83;;;3.53;;
17153;SDS011;8692;52.164;7.558;2023-05-10T03:03:17;4.40;;;3.90;;
17153;SDS011;8692;52.164;7.558;2023-05-10T03:05:50;4.27;;;3.97;;
17153;SDS011;8692;52.164;7.558;2023-05-10T03:08:20;3.33;;;3.13;;
17153;SDS011;8692;52.164;7.558;2023-05-10T03:10:54;4.27;;;3.90;;
17153;SDS011;8692;52.164;7.558;2023-05-10T03:13:30;3.80;;;3.50;;
17153;SDS011;8692;52.164;7.558;2023-05-10T03:16:07;4.00;;;3.60;;
17153;SDS011;8692;52.164;7.558;2023-05-10T03:18:41;3.70;;;3.40;;
17153;SDS011;8692;52.164;7.558;2023-05-10T03:21:14;3.77;;;3.57;;
17153;SDS011;8692;52.164;7.558;2023-05-10T03:23:50;3.43;;;3.13;;
17153;SDS011;8692;52.164;7.558;2023-05-10T03:26:27;3.23;;;3.03;;
17153;SDS011;8692;52.164;7.558;2023-05-10T03:29:08;3.20;;;3.00;;
17153;SDS011;8692;52.164;7.558;2023-05-10T03:31:37;3.33;;;3.03;;
17153;SDS011;8692;52.164;7.558;2023-05-10T03:34:08;3.50;;;3.20;;
17153;SDS011;8692;52.164;7.558;2023-05-10T03:36:40;3.17;;;2.97;;
17153;SDS011;8692;52.164;7.558;2023-05-10T03:39:08;3.00;;;2.70;;
17153;SDS011;8692;52.164;7.558;2023-05-10T03:41:36;3.10;;;2.30;;
17153;SDS011;8692;52.164;7.558;2023-05-10T03:44:05;4.23;;;2.50;;
17153;SDS011;8692;52.164;7.558;2023-05-10T03:46:35;3.83;;;2.80;;
17153;SDS011;8692;52.164;7.558;2023-05-10T03:49:03;2.50;;;2.30;;
17153;SDS011;8692;52.164;7.558;2023-05-10T03:51:31;2.60;;;2.40;;
17153;SDS011;8692;52.164;7.558;2023-05-10T03:54:04;2.77;;;2.50;;
17153;SDS011;8692;52.164;7.558;2023-05-10T03:56:32;3.37;;;3.17;;
17153;SDS011;8692;52.164;7.558;2023-05-10T03:59:00;3.57;;;3.07;;
17153;SDS011;8692;52.164;7.558;2023-05-10T04:01:35;5.03;;;4.10;;
17153;SDS011;8692;52.164;7.558;2023-05-10T04:04:08;4.10;;;3.70;;
17153;SDS011;8692;52.164;7.558;2023-05-10T04:06:37;4.63;;;4.23;;
17153;SDS011;8692;52.164;7.558;2023-05-10T04:09:07;5.87;;;4.40;;
17153;SDS011;8692;52.164;7.558;2023-05-10T04:11:35;4.07;;;3.77;;
17153;SDS011;8692;52.164;7.558;2023-05-10T04:14:03;6.53;;;4.13;;
17153;SDS011;8692;52.164;7.558;2023-05-10T04:16:31;5.17;;;4.60;;
17153;SDS011;8692;52.164;7.558;2023-05-10T04:18:59;5.03;;;4.63;;
17153;SDS011;8692;52.164;7.558;2023-05-10T04:21:29;5.53;;;5.03;;
17153;SDS011;8692;52.164;7.558;2023-05-10T04:23:58;4.70;;;4.30;;
17153;SDS011;8692;52.164;7.558;2023-05-10T04:26:30;6.03;;;4.90;;
17153;SDS011;8692;52.164;7.558;2023-05-10T04:28:58;5.30;;;4.80;;
17153;SDS011;8692;52.164;7.558;2023-05-10T04:31:26;5.20;;;4.80;;
17153;SDS011;8692;52.164;7.558;2023-05-10T04:33:56;4.70;;;4.30;;
17153;SDS011;8692;52.164;7.558;2023-05-10T04:36:27;6.03;;;5.30;;
17153;SDS011;8692;52.164;7.558;2023-05-10T04:38:55;5.00;;;4.60;;
17153;SDS011;8692;52.164;7.558;2023-05-10T04:41:23;5.00;;;4.50;;
17153;SDS011;8692;52.164;7.558;2023-05-10T04:43:53;5.83;;;5.33;;
17153;SDS011;8692;52.164;7.558;2023-05-10T04:46:21;5.67;;;5.17;;
17153;SDS011;8692;52.164;7.558;2023-05-10T04:48:50;5.67;;;5.17;;
17153;SDS011;8692;52.164;7.558;2023-05-10T04:51:18;6.03;;;5.50;;
17153;SDS011;8692;52.164;7.558;2023-05-10T04:53:46;6.93;;;6.33;;
17153;SDS011;8692;52.164;7.558;2023-05-10T04:56:32;5.87;;;5.37;;
17153;SDS011;8692;52.164;7.558;2023-05-10T04:59:02;6.83;;;6.27;;
17153;SDS011;8692;52.164;7.558;2023-05-10T05:01:30;6.70;;;6.20;;
17153;SDS011;8692;52.164;7.558;2023-05-10T05:03:58;8.00;;;7.30;;
17153;SDS011;8692;52.164;7.558;2023-05-10T05:06:30;8.00;;;7.30;;
17153;SDS011;8692;52.164;7.558;2023-05-10T05:09:00;7.07;;;6.47;;
17153;SDS011;8692;52.164;7.558;2023-05-10T05:11:31;6.73;;;6.13;;
17153;SDS011;8692;52.164;7.558;2023-05-10T05:13:59;7.30;;;6.70;;
17153;SDS011;8692;52.164;7.558;2023-05-10T05:16:29;8.77;;;7.57;;
17153;SDS011;8692;52.164;7.558;2023-05-10T05:18:59;6.93;;;6.30;;
17153;SDS011;8692;52.164;7.558;2023-05-10T05:21:30;7.13;;;6.53;;
17153;SDS011;8692;52.164;7.558;2023-05-10T05:23:59;6.67;;;6.07;;
17153;SDS011;8692;52.164;7.558;2023-05-10T05:26:27;6.40;;;5.83;;
17153;SDS011;8692;52.164;7.558;2023-05-10T05:28:55;8.53;;;7.67;;
17153;SDS011;8692;52.164;7.558;2023-05-10T05:31:23;8.13;;;7.43;;
17153;SDS011;8692;52.164;7.558;2023-05-10T05:33:56;8.83;;;7.87;;
17153;SDS011;8692;52.164;7.558;2023-05-10T05:36:24;7.97;;;7.20;;
17153;SDS011;8692;52.164;7.558;2023-05-10T05:38:52;7.63;;;6.93;;
17153;SDS011;8692;52.164;7.558;2023-05-10T05:41:23;9.17;;;8.27;;
17153;SDS011;8692;52.164;7.558;2023-05-10T05:43:54;7.17;;;6.57;;
17153;SDS011;8692;52.164;7.558;2023-05-10T05:46:22;7.73;;;7.07;;
17153;SDS011;8692;52.164;7.558;2023-05-10T05:48:51;9.53;;;8.57;;
17153;SDS011;8692;52.164;7.558;2023-05-10T05:51:20;11.10;;;9.50;;
17153;SDS011;8692;52.164;7.558;2023-05-10T05:53:48;9.43;;;8.53;;
17153;SDS011;8692;52.164;7.558;2023-05-10T05:56:19;9.17;;;8.23;;
17153;SDS011;8692;52.164;7.558;2023-05-10T05:58:50;9.83;;;8.13;;
17153;SDS011;8692;52.164;7.558;2023-05-10T06:01:19;9.00;;;8.10;;
17153;SDS011;8692;52.164;7.558;2023-05-10T06:03:49;10.23;;;8.73;;
17153;SDS011;8692;52.164;7.558;2023-05-10T06:06:22;9.07;;;8.27;;
17153;SDS011;8692;52.164;7.558;2023-05-10T06:08:50;11.20;;;8.20;;
17153;SDS011;8692;52.164;7.558;2023-05-10T06:11:19;9.23;;;8.33;;
17153;SDS011;8692;52.164;7.558;2023-05-10T06:13:47;12.27;;;10.53;;
17153;SDS011;8692;52.164;7.558;2023-05-10T06:16:15;16.33;;;12.43;;
17153;SDS011;8692;52.164;7.558;2023-05-10T06:18:46;15.60;;;12.67;;
17153;SDS011;8692;52.164;7.558;2023-05-10T06:21:16;15.60;;;11.20;;
17153;SDS011;8692;52.164;7.558;2023-05-10T06:23:46;14.37;;;12.13;;
17153;SDS011;8692;52.164;7.558;2023-05-10T06:26:14;18.67;;;13.77;;
17153;SDS011;8692;52.164;7.558;2023-05-10T06:28:42;20.53;;;15.97;;
17153;SDS011;8692;52.164;7.558;2023-05-10T06:31:13;20.87;;;16.17;;
17153;SDS011;8692;52.164;7.558;2023-05-10T06:33:41;18.80;;;15.73;;
17153;SDS011;8692;52.164;7.558;2023-05-10T06:36:09;20.33;;;15.97;;
17153;SDS011;8692;52.164;7.558;2023-05-10T06:38:37;20.63;;;15.20;;
17153;SDS011;8692;52.164;7.558;2023-05-10T06:41:07;21.53;;;16.33;;
17153;SDS011;8692;52.164;7.558;2023-05-10T06:43:35;23.20;;;18.43;;
17153;SDS011;8692;52.164;7.558;2023-05-10T06:46:06;24.90;;;18.07;;
17153;SDS011;8692;52.164;7.558;2023-05-10T06:48:34;27.27;;;19.17;;
17153;SDS011;8692;52.164;7.558;2023-05-10T06:51:05;27.33;;;20.70;;
17153;SDS011;8692;52.164;7.558;2023-05-10T06:53:33;27.13;;;19.97;;
17153;SDS011;8692;52.164;7.558;2023-05-10T06:56:01;26.13;;;20.63;;
17153;SDS011;8692;52.164;7.558;2023-05-10T06:58:34;32.53;;;22.17;;
17153;SDS011;8692;52.164;7.558;2023-05-10T07:01:02;30.40;;;21.47;;
17153;SDS011;8692;52.164;7.558;2023-05-10T07:03:31;31.63;;;22.67;;
17153;SDS011;8692;52.164;7.558;2023-05-10T07:06:00;31.83;;;23.07;;
17153;SDS011;8692;52.164;7.558;2023-05-10T07:08:32;31.30;;;22.90;;
17153;SDS011;8692;52.164;7.558;2023-05-10T07:11:01;37.30;;;25.20;;
17153;SDS011;8692;52.164;7.558;2023-05-10T07:13:30;36.60;;;26.00;;
17153;SDS011;8692;52.164;7.558;2023-05-10T07:16:00;32.20;;;22.73;;
17153;SDS011;8692;52.164;7.558;2023-05-10T07:18:29;27.47;;;20.77;;
17153;SDS011;8692;52.164;7.558;2023-05-10T07:20:57;31.27;;;23.77;;
17153;SDS011;8692;52.164;7.558;2023-05-10T07:23:25;33.27;;;24.27;;
17153;SDS011;8692;52.164;7.558;2023-05-10T07:25:54;31.83;;;24.30;;
17153;SDS011;8692;52.164;7.558;2023-05-10T07:28:23;31.97;;;23.10;;
17153;SDS011;8692;52.164;7.558;2023-05-10T07:30:52;32.43;;;25.00;;
17153;SDS011;8692;52.164;7.558;2023-05-10T07:33:23;34.90;;;25.03;;
17153;SDS011;8692;52.164;7.558;2023-05-10T07:35:51;30.27;;;23.57;;
17153;SDS011;8692;52.164;7.558;2023-05-10T07:38:22;32.53;;;23.43;;
17153;SDS011;8692;52.164;7.558;2023-05-10T07:40:50;32.63;;;22.77;;
17153;SDS011;8692;52.164;7.558;2023-05-10T07:43:19;30.80;;;23.60;;
17153;SDS011;8692;52.164;7.558;2023-05-10T07:45:47;34.13;;;22.67;;
17153;SDS011;8692;52.164;7.558;2023-05-10T07:48:18;31.33;;;22.33;;
17153;SDS011;8692;52.164;7.558;2023-05-10T07:50:48;29.50;;;23.33;;
17153;SDS011;8692;52.164;7.558;2023-05-10T07:53:18;30.33;;;23.73;;
17153;SDS011;8692;52.164;7.558;2023-05-10T07:55:49;31.37;;;22.63;;
17153;SDS011;8692;52.164;7.558;2023-05-10T07:58:18;31.37;;;23.23;;
17153;SDS011;8692;52.164;7.558;2023-05-10T08:00:46;30.17;;;22.47;;
17153;SDS011;8692;52.164;7.558;2023-05-10T08:03:15;30.40;;;22.30;;
17153;SDS011;8692;52.164;7.558;2023-05-10T08:05:44;32.83;;;23.80;;
17153;SDS011;8692;52.164;7.558;2023-05-10T08:08:15;31.93;;;23.50;;
17153;SDS011;8692;52.164;7.558;2023-05-10T08:10:46;32.73;;;24.13;;
17153;SDS011;8692;52.164;7.558;2023-05-10T08:13:14;30.33;;;22.73;;
17153;SDS011;8692;52.164;7.558;2023-05-10T08:15:42;32.87;;;23.07;;
17153;SDS011;8692;52.164;7.558;2023-05-10T08:18:14;29.20;;;22.60;;
17153;SDS011;8692;52.164;7.558;2023-05-10T08:20:42;29.20;;;22.37;;
17153;SDS011;8692;52.164;7.558;2023-05-10T08:23:11;30.33;;;21.70;;
17153;SDS011;8692;52.164;7.558;2023-05-10T08:25:41;29.57;;;21.63;;
17153;SDS011;8692;52.164;7.558;2023-05-10T08:28:09;27.33;;;21.67;;
17153;SDS011;8692;52.164;7.558;2023-05-10T08:30:40;27.63;;;21.77;;
17153;SDS011;8692;52.164;7.558;2023-05-10T08:33:08;29.37;;;21.63;;
17153;SDS011;8692;52.164;7.558;2023-05-10T08:35:36;26.37;;;21.13;;
17153;SDS011;8692;52.164;7.558;2023-05-10T08:38:04;24.97;;;19.93;;
17153;SDS011;8692;52.164;7.558;2023-05-10T08:40:32;22.50;;;19.13;;
17153;SDS011;8692;52.164;7.558;2023-05-10T08:43:04;25.27;;;19.83;;
17153;SDS011;8692;52.164;7.558;2023-05-10T08:45:33;24.73;;;20.10;;
17153;SDS011;8692;52.164;7.558;2023-05-10T08:48:07;26.27;;;20.33;;
17153;SDS011;8692;52.164;7.558;2023-05-10T08:50:37;23.97;;;19.30;;
17153;SDS011;8692;52.164;7.558;2023-05-10T08:53:08;25.03;;;19.70;;
17153;SDS011;8692;52.164;7.558;2023-05-10T08:55:38;23.43;;;19.10;;
17153;SDS011;8692;52.164;7.558;2023-05-10T08:58:13;26.60;;;21.07;;
17153;SDS011;8692;52.164;7.558;2023-05-10T09:00:41;25.77;;;20.50;;
17153;SDS011;8692;52.164;7.558;2023-05-10T09:03:13;23.73;;;19.03;;
17153;SDS011;8692;52.164;7.558;2023-05-10T09:05:44;24.43;;;19.20;;
17153;SDS011;8692;52.164;7.558;2023-05-10T09:08:15;27.80;;;21.00;;
17153;SDS011;8692;52.164;7.558;2023-05-10T09:10:44;29.23;;;20.60;;
17153;SDS011;8692;52.164;7.558;2023-05-10T09:13:15;26.17;;;20.23;;
17153;SDS011;8692;52.164;7.558;2023-05-10T09:15:44;26.77;;;20.07;;
17153;SDS011;8692;52.164;7.558;2023-05-10T09:18:13;27.00;;;19.83;;
17153;SDS011;8692;52.164;7.558;2023-05-10T09:20:41;27.70;;;19.83;;
17153;SDS011;8692;52.164;7.558;2023-05-10T09:23:10;24.60;;;19.07;;
17153;SDS011;8692;52.164;7.558;2023-05-10T09:25:38;27.43;;;18.83;;
17153;SDS011;8692;52.164;7.558;2023-05-10T09:28:08;25.70;;;20.23;;
17153;SDS011;8692;52.164;7.558;2023-05-10T09:30:40;26.23;;;19.90;;
17153;SDS011;8692;52.164;7.558;2023-05-10T09:33:09;22.27;;;18.20;;
17153;SDS011;8692;52.164;7.558;2023-05-10T09:35:39;24.70;;;19.00;;
17153;SDS011;8692;52.164;7.558;2023-05-10T09:38:08;25.30;;;19.37;;
17153;SDS011;8692;52.164;7.558;2023-05-10T09:40:37;26.27;;;19.03;;
17153;SDS011;8692;52.164;7.558;2023-05-10T09:43:07;27.60;;;19.90;;
17153;SDS011;8692;52.164;7.558;2023-05-10T09:45:37;26.20;;;18.97;;
17153;SDS011;8692;52.164;7.558;2023-05-10T09:48:09;24.73;;;20.00;;
17153;SDS011;8692;52.164;7.558;2023-05-10T09:50:37;21.90;;;17.53;;
17153;SDS011;8692;52.164;7.558;2023-05-10T09:53:07;23.53;;;17.77;;
17153;SDS011;8692;52.164;7.558;2023-05-10T09:55:38;22.50;;;17.73;;
17153;SDS011;8692;52.164;7.558;2023-05-10T09:58:10;19.20;;;16.27;;
17153;SDS011;8692;52.164;7.558;2023-05-10T10:00:41;21.57;;;16.73;;
17153;SDS011;8692;52.164;7.558;2023-05-10T10:03:14;25.27;;;17.20;;
17153;SDS011;8692;52.164;7.558;2023-05-10T10:05:46;18.87;;;15.13;;
17153;SDS011;8692;52.164;7.558;2023-05-10T10:08:15;19.10;;;15.53;;
17153;SDS011;8692;52.164;7.558;2023-05-10T10:10:47;20.03;;;15.67;;
17153;SDS011;8692;52.164;7.558;2023-05-10T10:13:19;21.37;;;15.63;;
17153;SDS011;8692;52.164;7.558;2023-05-10T10:15:51;22.90;;;15.87;;
17153;SDS011;8692;52.164;7.558;2023-05-10T10:18:23;21.47;;;16.13;;
17153;SDS011;8692;52.164;7.558;2023-05-10T10:20:55;18.93;;;15.70;;
17153;SDS011;8692;52.164;7.558;2023-05-10T10:23:24;19.57;;;15.77;;
17153;SDS011;8692;52.164;7.558;2023-05-10T10:25:53;24.33;;;16.03;;
17153;SDS011;8692;52.164;7.558;2023-05-10T10:28:24;17.83;;;15.43;;
17153;SDS011;8692;52.164;7.558;2023-05-10T10:31:10;21.00;;;16.23;;
17153;SDS011;8692;52.164;7.558;2023-05-10T10:33:53;17.90;;;16.00;;
17153;SDS011;8692;52.164;7.558;2023-05-10T10:36:29;22.00;;;14.90;;
17153;SDS011;8692;52.164;7.558;2023-05-10T10:38:57;18.23;;;14.80;;
17153;SDS011;8692;52.164;7.558;2023-05-10T10:41:30;15.70;;;13.83;;
17153;SDS011;8692;52.164;7.558;2023-05-10T10:50:04;15.37;;;13.47;;
17153;SDS011;8692;52.164;7.558;2023-05-10T10:52:35;15.73;;;12.83;;
17153;SDS011;8692;52.164;7.558;2023-05-10T10:55:07;17.90;;;12.27;;
17153;SDS011;8692;52.164;7.558;2023-05-10T10:57:46;14.90;;;11.77;;
17153;SDS011;8692;52.164;7.558;2023-05-10T11:00:23;14.90;;;11.73;;
17153;SDS011;8692;52.164;7.558;2023-05-10T11:02:58;14.57;;;12.00;;
17153;SDS011;8692;52.164;7.558;2023-05-10T11:05:36;15.67;;;12.47;;
17153;SDS011;8692;52.164;7.558;2023-05-10T11:08:07;14.23;;;12.20;;
17153;SDS011;8692;52.164;7.558;2023-05-10T11:10:38;15.20;;;12.60;;
17153;SDS011;8692;52.164;7.558;2023-05-10T11:13:09;13.53;;;11.20;;
17153;SDS011;8692;52.164;7.558;2023-05-10T11:15:38;13.13;;;11.73;;
17153;SDS011;8692;52.164;7.558;2023-05-10T11:18:17;13.30;;;11.30;;
17153;SDS011;8692;52.164;7.558;2023-05-10T11:20:51;16.20;;;12.63;;
17153;SDS011;8692;52.164;7.558;2023-05-10T11:23:20;16.33;;;12.90;;
17153;SDS011;8692;52.164;7.558;2023-05-10T11:25:51;15.27;;;11.07;;
17153;SDS011;8692;52.164;7.558;2023-05-10T11:28:22;13.50;;;12.10;;
17153;SDS011;8692;52.164;7.558;2023-05-10T11:30:53;14.10;;;11.30;;
17153;SDS011;8692;52.164;7.558;2023-05-10T11:33:22;14.03;;;11.90;;
17153;SDS011;8692;52.164;7.558;2023-05-10T11:35:52;18.20;;;12.03;;
17153;SDS011;8692;52.164;7.558;2023-05-10T11:38:22;16.30;;;12.20;;
17153;SDS011;8692;52.164;7.558;2023-05-10T11:40:51;13.47;;;11.20;;
17153;SDS011;8692;52.164;7.558;2023-05-10T11:43:23;18.60;;;13.03;;
17153;SDS011;8692;52.164;7.558;2023-05-10T11:45:54;15.03;;;13.27;;
17153;SDS011;8692;52.164;7.558;2023-05-10T11:48:26;14.23;;;12.13;;
17153;SDS011;8692;52.164;7.558;2023-05-10T11:50:58;14.63;;;12.20;;
17153;SDS011;8692;52.164;7.558;2023-05-10T11:53:31;16.53;;;13.87;;
17153;SDS011;8692;52.164;7.558;2023-05-10T11:56:03;15.37;;;12.67;;
17153;SDS011;8692;52.164;7.558;2023-05-10T11:58:32;15.63;;;12.50;;
17153;SDS011;8692;52.164;7.558;2023-05-10T12:01:03;17.30;;;14.00;;
17153;SDS011;8692;52.164;7.558;2023-05-10T12:03:32;15.77;;;13.30;;
17153;SDS011;8692;52.164;7.558;2023-05-10T12:06:06;17.63;;;13.10;;
17153;SDS011;8692;52.164;7.558;2023-05-10T12:08:35;13.50;;;11.83;;
17153;SDS011;8692;52.164;7.558;2023-05-10T12:11:04;14.33;;;11.20;;
17153;SDS011;8692;52.164;7.558;2023-05-10T12:13:37;13.67;;;12.10;;
17153;SDS011;8692;52.164;7.558;2023-05-10T12:16:13;14.03;;;11.63;;
17153;SDS011;8692;52.164;7.558;2023-05-10T12:18:44;14.40;;;12.40;;
17153;SDS011;8692;52.164;7.558;2023-05-10T12:21:17;13.80;;;12.07;;
17153;SDS011;8692;52.164;7.558;2023-05-10T12:23:46;14.90;;;11.83;;
17153;SDS011;8692;52.164;7.558;2023-05-10T12:26:15;12.60;;;11.27;;
17153;SDS011;8692;52.164;7.558;2023-05-10T12:28:46;12.90;;;10.80;;
17153;SDS011;8692;52.164;7.558;2023-05-10T12:31:14;14.80;;;11.43;;
17153;SDS011;8692;52.164;7.558;2023-05-10T12:33:43;14.57;;;11.57;;
17153;SDS011;8692;52.164;7.558;2023-05-10T12:36:14;14.43;;;12.73;;
17153;SDS011;8692;52.164;7.558;2023-05-10T12:38:47;13.97;;;11.60;;
17153;SDS011;8692;52.164;7.558;2023-05-10T12:41:19;15.70;;;11.73;;
17153;SDS011;8692;52.164;7.558;2023-05-10T12:43:47;15.53;;;12.53;;
17153;SDS011;8692;52.164;7.558;2023-05-10T12:46:16;13.27;;;11.60;;
17153;SDS011;8692;52.164;7.558;2023-05-10T12:48:44;12.77;;;11.40;;
17153;SDS011;8692;52.164;7.558;2023-05-10T12:51:28;14.53;;;10.63;;
17153;SDS011;8692;52.164;7.558;2023-05-10T12:54:00;12.63;;;10.50;;
17153;SDS011;8692;52.164;7.558;2023-05-10T12:56:29;12.43;;;9.93;;
17153;SDS011;8692;52.164;7.558;2023-05-10T12:58:58;13.70;;;11.37;;
17153;SDS011;8692;52.164;7.558;2023-05-10T13:01:26;13.00;;;10.67;;
17153;SDS011;8692;52.164;7.558;2023-05-10T13:03:54;14.03;;;11.73;;
17153;SDS011;8692;52.164;7.558;2023-05-10T13:06:23;12.73;;;10.93;;
17153;SDS011;8692;52.164;7.558;2023-05-10T13:08:53;14.03;;;11.87;;
17153;SDS011;8692;52.164;7.558;2023-05-10T13:11:25;14.40;;;12.93;;
17153;SDS011;8692;52.164;7.558;2023-05-10T13:13:54;11.30;;;10.20;;
17153;SDS011;8692;52.164;7.558;2023-05-10T13:16:22;15.00;;;10.80;;
17153;SDS011;8692;52.164;7.558;2023-05-10T13:18:50;14.00;;;11.27;;
17153;SDS011;8692;52.164;7.558;2023-05-10T13:21:19;12.80;;;11.47;;
17153;SDS011;8692;52.164;7.558;2023-05-10T13:23:52;12.53;;;10.37;;
17153;SDS011;8692;52.164;7.558;2023-05-10T13:26:30;10.53;;;9.43;;
17153;SDS011;8692;52.164;7.558;2023-05-10T13:29:05;12.37;;;10.37;;
17153;SDS011;8692;52.164;7.558;2023-05-10T13:31:41;11.40;;;9.63;;
17153;SDS011;8692;52.164;7.558;2023-05-10T13:34:14;11.40;;;9.70;;
17153;SDS011;8692;52.164;7.558;2023-05-10T13:36:51;14.17;;;11.40;;
17153;SDS011;8692;52.164;7.558;2023-05-10T13:39:29;14.27;;;11.00;;
17153;SDS011;8692;52.164;7.558;2023-05-10T13:42:05;13.60;;;10.37;;
17153;SDS011;8692;52.164;7.558;2023-05-10T13:44:34;10.77;;;9.70;;
17153;SDS011;8692;52.164;7.558;2023-05-10T13:47:04;14.30;;;11.17;;
17153;SDS011;8692;52.164;7.558;2023-05-10T13:49:33;12.67;;;10.37;;
17153;SDS011;8692;52.164;7.558;2023-05-10T13:52:01;13.70;;;10.80;;
17153;SDS011;8692;52.164;7.558;2023-05-10T13:54:36;15.33;;;12.33;;
17153;SDS011;8692;52.164;7.558;2023-05-10T13:57:06;15.57;;;10.93;;
17153;SDS011;8692;52.164;7.558;2023-05-10T13:59:36;14.07;;;12.50;;
17153;SDS011;8692;52.164;7.558;2023-05-10T14:02:04;15.87;;;11.90;;
17153;SDS011;8692;52.164;7.558;2023-05-10T14:04:35;15.20;;;12.53;;
17153;SDS011;8692;52.164;7.558;2023-05-10T14:07:04;15.07;;;12.13;;
17153;SDS011;8692;52.164;7.558;2023-05-10T14:09:32;13.13;;;11.00;;
17153;SDS011;8692;52.164;7.558;2023-05-10T14:12:03;14.23;;;10.37;;
17153;SDS011;8692;52.164;7.558;2023-05-10T14:14:32;11.70;;;9.90;;
17153;SDS011;8692;52.164;7.558;2023-05-10T14:17:01;12.70;;;10.03;;
17153;SDS011;8692;52.164;7.558;2023-05-10T14:19:29;13.57;;;10.97;;
17153;SDS011;8692;52.164;7.558;2023-05-10T14:21:59;11.97;;;10.67;;
17153;SDS011;8692;52.164;7.558;2023-05-10T14:24:29;12.17;;;10.10;;
17153;SDS011;8692;52.164;7.558;2023-05-10T14:27:00;13.50;;;11.40;;
17153;SDS011;8692;52.164;7.558;2023-05-10T14:29:30;13.17;;;10.83;;
17153;SDS011;8692;52.164;7.558;2023-05-10T14:32:00;11.90;;;10.63;;
17153;SDS011;8692;52.164;7.558;2023-05-10T14:34:29;13.47;;;11.00;;
17153;SDS011;8692;52.164;7.558;2023-05-10T14:36:59;14.53;;;10.90;;
17153;SDS011;8692;52.164;7.558;2023-05-10T14:39:30;12.13;;;10.47;;
17153;SDS011;8692;52.164;7.558;2023-05-10T14:41:59;13.70;;;9.77;;
17153;SDS011;8692;52.164;7.558;2023-05-10T14:44:28;13.93;;;9.73;;
17153;SDS011;8692;52.164;7.558;2023-05-10T14:47:00;18.07;;;10.80;;
17153;SDS011;8692;52.164;7.558;2023-05-10T14:49:30;11.77;;;9.40;;
17153;SDS011;8692;52.164;7.558;2023-05-10T14:51:58;9.73;;;8.10;;
17153;SDS011;8692;52.164;7.558;2023-05-10T14:54:29;13.53;;;9.90;;
17153;SDS011;8692;52.164;7.558;2023-05-10T14:57:02;12.37;;;9.27;;
17153;SDS011;8692;52.164;7.558;2023-05-10T14:59:30;14.67;;;11.27;;
17153;SDS011;8692;52.164;7.558;2023-05-10T15:02:00;13.07;;;10.63;;
17153;SDS011;8692;52.164;7.558;2023-05-10T15:04:32;14.43;;;10.80;;
17153;SDS011;8692;52.164;7.558;2023-05-10T15:07:01;12.60;;;10.53;;
17153;SDS011;8692;52.164;7.558;2023-05-10T15:09:29;13.07;;;10.53;;
17153;SDS011;8692;52.164;7.558;2023-05-10T15:11:57;14.93;;;12.43;;
17153;SDS011;8692;52.164;7.558;2023-05-10T15:14:26;13.43;;;10.80;;